createdAt,value
2023-05-23T00:01:16.136Z,100.00
2023-05-23T00:03:49.669Z,100.00
2023-05-23T00:06:21.984Z,100.00
2023-05-23T00:08:53.972Z,100.00
2023-05-23T00:11:27.414Z,100.00
2023-05-23T00:14:00.743Z,100.00
2023-05-23T00:16:33.300Z,100.00
2023-05-23T00:19:05.540Z,100.00
2023-05-23T00:21:37.969Z,100.00
2023-05-23T00:24:10.752Z,100.00
2023-05-23T00:26:43.557Z,100.00
2023-05-23T00:29:18.755Z,100.00
2023-05-23T00:31:50.635Z,100.00
2023-05-23T00:34:22.707Z,100.00
2023-05-23T00:36:54.511Z,100.00
2023-05-23T00:39:27.057Z,100.00
2023-05-23T00:41:59.096Z,100.00
2023-05-23T00:44:31.885Z,100.00
2023-05-23T00:47:03.832Z,100.00
2023-05-23T00:49:36.164Z,100.00
2023-05-23T00:52:08.123Z,100.00
2023-05-23T00:54:40.210Z,100.00
2023-05-23T00:57:13.294Z,100.00
2023-05-23T00:59:45.247Z,100.00
2023-05-23T01:02:17.301Z,100.00
2023-05-23T01:04:52.393Z,100.00
2023-05-23T01:07:24.396Z,100.00
2023-05-23T01:09:56.285Z,100.00
2023-05-23T01:12:46.828Z,100.00
2023-05-23T01:15:21.006Z,100.00
2023-05-23T01:18:03.315Z,100.00
2023-05-23T01:20:41.217Z,100.00
2023-05-23T01:23:32.725Z,100.00
2023-05-23T01:26:35.284Z,100.00
2023-05-23T01:29:12.658Z,100.00
2023-05-23T01:31:45.778Z,100.00
2023-05-23T01:34:19.048Z,100.00
2023-05-23T01:36:54.044Z,100.00
2023-05-23T01:39:26.237Z,100.00
2023-05-23T01:41:57.976Z,100.00
2023-05-23T01:44:31.256Z,100.00
2023-05-23T01:47:04.993Z,100.00
2023-05-23T01:49:37.901Z,100.00
2023-05-23T01:52:13.339Z,100.00
2023-05-23T01:54:45.324Z,100.00
2023-05-23T01:57:17.509Z,100.00
2023-05-23T01:59:49.709Z,100.00
2023-05-23T02:02:22.254Z,100.00
2023-05-23T02:04:54.288Z,100.00
2023-05-23T02:07:26.202Z,100.00
2023-05-23T02:09:58.009Z,100.00
2023-05-23T02:12:29.802Z,100.00
2023-05-23T02:15:02.884Z,100.00
2023-05-23T02:17:35.232Z,100.00
2023-05-23T02:20:08.536Z,100.00
2023-05-23T02:22:41.360Z,100.00
2023-05-23T02:25:13.204Z,100.00
2023-05-23T02:27:45.277Z,100.00
2023-05-23T02:30:20.214Z,100.00
2023-05-23T02:32:54.066Z,100.00
2023-05-23T02:35:26.255Z,100.00
2023-05-23T02:37:58.233Z,100.00
2023-05-23T02:40:30.065Z,100.00
2023-05-23T02:43:01.689Z,100.00
2023-05-23T02:45:34.528Z,100.00
2023-05-23T02:48:06.771Z,100.00
2023-05-23T02:50:39.019Z,100.00
2023-05-23T02:53:10.706Z,100.00
2023-05-23T02:55:43.342Z,100.00
2023-05-23T02:58:15.198Z,100.00
2023-05-23T03:00:47.350Z,100.00
2023-05-23T03:03:19.406Z,100.00
2023-05-23T03:05:51.912Z,100.00
2023-05-23T03:08:24.227Z,100.00
2023-05-23T03:10:55.864Z,100.00
2023-05-23T03:13:27.900Z,100.00
2023-05-23T03:16:00.155Z,100.00
2023-05-23T03:18:32.349Z,100.00
2023-05-23T03:21:04.203Z,100.00
2023-05-23T03:23:36.903Z,100.00
2023-05-23T03:26:08.900Z,100.00
2023-05-23T03:28:41.576Z,100.00
2023-05-23T03:31:13.599Z,100.00
2023-05-23T03:33:45.711Z,100.00
2023-05-23T03:36:17.485Z,100.00
2023-05-23T03:38:49.135Z,100.00
2023-05-23T03:41:21.693Z,100.00
2023-05-23T03:43:54.142Z,100.00
2023-05-23T03:46:26.821Z,100.00
2023-05-23T03:48:58.915Z,100.00
2023-05-23T03:51:31.910Z,100.00
2023-05-23T03:54:03.917Z,100.00
2023-05-23T03:56:36.005Z,100.00
2023-05-23T03:59:08.291Z,100.00
2023-05-23T04:01:40.368Z,100.00
2023-05-23T04:04:12.834Z,100.00
2023-05-23T04:06:44.877Z,100.00
2023-05-23T04:09:17.248Z,100.00
2023-05-23T04:11:50.983Z,100.00
2023-05-23T04:14:24.469Z,100.00
2023-05-23T04:16:57.172Z,100.00
2023-05-23T04:19:29.370Z,100.00
2023-05-23T04:22:01.693Z,100.00
2023-05-23T04:24:33.809Z,100.00
2023-05-23T04:27:06.068Z,100.00
2023-05-23T04:29:38.759Z,100.00
2023-05-23T04:32:11.584Z,100.00
2023-05-23T04:34:44.428Z,100.00
2023-05-23T04:37:17.566Z,100.00
2023-05-23T04:39:53.330Z,100.00
2023-05-23T04:42:36.301Z,100.00
2023-05-23T04:45:12.526Z,100.00
2023-05-23T04:47:49.099Z,100.00
2023-05-23T04:50:25.756Z,100.00
2023-05-23T04:52:57.736Z,100.00
2023-05-23T04:55:29.699Z,100.00
2023-05-23T04:58:02.170Z,100.00
2023-05-23T05:00:34.400Z,100.00
2023-05-23T05:03:06.780Z,100.00
2023-05-23T05:05:39.077Z,100.00
2023-05-23T05:08:11.862Z,100.00
2023-05-23T05:10:43.839Z,100.00
2023-05-23T05:13:16.226Z,100.00
2023-05-23T05:15:49.834Z,100.00
2023-05-23T05:18:21.931Z,100.00
2023-05-23T05:20:54.141Z,100.00
2023-05-23T05:23:29.545Z,100.00
2023-05-23T05:26:01.663Z,100.00
2023-05-23T05:28:33.527Z,100.00
2023-05-23T05:31:05.789Z,100.00
2023-05-23T05:33:40.025Z,100.00
2023-05-23T05:36:13.495Z,100.00
2023-05-23T05:38:46.558Z,100.00
2023-05-23T05:41:18.804Z,100.00
2023-05-23T05:43:52.286Z,100.00
2023-05-23T05:46:24.859Z,100.00
2023-05-23T05:48:57.212Z,100.00
2023-05-23T05:51:29.619Z,100.00
2023-05-23T05:54:01.392Z,100.00
2023-05-23T05:56:33.302Z,100.00
2023-05-23T05:59:05.013Z,100.00
2023-05-23T06:01:38.049Z,100.00
2023-05-23T06:04:10.587Z,100.00
2023-05-23T06:06:42.764Z,100.00
2023-05-23T06:09:14.800Z,100.00
2023-05-23T06:11:47.325Z,100.00
2023-05-23T06:14:19.503Z,100.00
2023-05-23T06:16:52.350Z,100.00
2023-05-23T06:19:24.547Z,100.00
2023-05-23T06:21:56.281Z,100.00
2023-05-23T06:24:28.283Z,100.00
2023-05-23T06:27:00.171Z,100.00
2023-05-23T06:29:32.082Z,100.00
2023-05-23T06:32:04.325Z,100.00
2023-05-23T06:34:36.317Z,100.00
2023-05-23T06:37:08.427Z,100.00
2023-05-23T06:39:40.609Z,100.00
2023-05-23T06:42:12.531Z,100.00
2023-05-23T06:44:46.300Z,100.00
2023-05-23T06:47:18.175Z,100.00
2023-05-23T06:49:50.328Z,100.00
2023-05-23T06:52:22.589Z,100.00
2023-05-23T06:54:55.825Z,100.00
2023-05-23T06:57:27.688Z,100.00
2023-05-23T06:59:59.987Z,100.00
2023-05-23T07:02:32.949Z,100.00
2023-05-23T07:05:07.247Z,100.00
2023-05-23T07:07:41.570Z,100.00
2023-05-23T07:10:13.806Z,100.00
2023-05-23T07:12:52.176Z,100.00
2023-05-23T07:15:25.386Z,100.00
2023-05-23T07:17:58.842Z,100.00
2023-05-23T07:20:31.411Z,99.44
2023-05-23T07:23:05.110Z,100.00
2023-05-23T07:25:40.334Z,99.19
2023-05-23T07:28:12.281Z,98.42
2023-05-23T07:30:45.531Z,98.32
2023-05-23T07:33:17.814Z,97.86
2023-05-23T07:35:51.132Z,96.91
2023-05-23T07:38:23.591Z,96.66
2023-05-23T07:41:09.956Z,96.38
2023-05-23T07:43:29.384Z,96.15
2023-05-23T07:46:01.609Z,95.78
2023-05-23T07:48:34.065Z,96.02
2023-05-23T07:51:06.272Z,95.97
2023-05-23T07:53:40.401Z,96.52
2023-05-23T07:56:14.280Z,96.32
2023-05-23T07:58:46.832Z,97.36
2023-05-23T08:01:18.701Z,97.21
2023-05-23T08:03:55.227Z,96.89
2023-05-23T08:06:28.783Z,96.87
2023-05-23T08:09:02.794Z,95.41
2023-05-23T08:11:34.928Z,95.29
2023-05-23T08:14:06.833Z,95.19
2023-05-23T08:16:43.579Z,95.47
2023-05-23T08:19:17.500Z,95.57
2023-05-23T08:21:50.314Z,95.09
2023-05-23T08:24:22.436Z,95.22
2023-05-23T08:26:54.351Z,95.14
2023-05-23T08:29:26.609Z,94.91
2023-05-23T08:31:59.137Z,95.19
2023-05-23T08:34:31.595Z,94.96
2023-05-23T08:37:04.584Z,93.88
2023-05-23T08:39:38.054Z,93.81
2023-05-23T08:42:27.615Z,93.95
2023-05-23T08:44:59.786Z,94.14
2023-05-23T08:47:32.125Z,93.96
2023-05-23T08:50:08.330Z,93.07
2023-05-23T08:52:53.330Z,92.05
2023-05-23T08:55:30.100Z,92.86
2023-05-23T08:58:03.862Z,92.45
2023-05-23T09:00:49.097Z,91.57
2023-05-23T09:03:21.385Z,91.25
2023-05-23T09:06:00.425Z,90.68
2023-05-23T09:08:33.634Z,89.67
2023-05-23T09:11:06.974Z,89.56
2023-05-23T09:13:40.749Z,89.25
2023-05-23T09:16:13.583Z,89.12
2023-05-23T09:18:47.789Z,89.62
2023-05-23T09:21:21.060Z,90.35
2023-05-23T09:24:13.252Z,89.28
2023-05-23T09:26:50.301Z,89.70
2023-05-23T09:29:22.078Z,89.50
2023-05-23T09:31:53.980Z,88.13
2023-05-23T09:34:26.889Z,88.30
2023-05-23T09:36:58.912Z,88.25
2023-05-23T09:39:31.044Z,87.46
2023-05-23T09:42:03.128Z,86.23
2023-05-23T09:44:35.086Z,85.56
2023-05-23T09:47:08.360Z,85.19
2023-05-23T09:49:41.522Z,85.67
2023-05-23T09:52:13.802Z,85.17
2023-05-23T09:54:46.766Z,84.28
2023-05-23T09:57:19.003Z,84.35
2023-05-23T09:59:55.576Z,84.52
2023-05-23T10:02:45.320Z,85.11
2023-05-23T10:05:20.275Z,85.58
2023-05-23T10:07:52.722Z,85.96
2023-05-23T10:10:24.773Z,85.71
2023-05-23T10:12:57.494Z,86.12
2023-05-23T10:15:30.564Z,86.66
2023-05-23T10:18:08.940Z,85.90
2023-05-23T10:20:42.663Z,84.19
2023-05-23T10:23:14.796Z,84.80
2023-05-23T10:25:47.083Z,85.07
2023-05-23T10:28:18.762Z,86.58
2023-05-23T10:30:51.351Z,84.21
2023-05-23T10:33:25.119Z,85.34
2023-05-23T10:36:11.598Z,84.79
2023-05-23T10:39:04.576Z,84.27
2023-05-23T10:41:39.662Z,84.04
2023-05-23T10:44:15.866Z,85.09
2023-05-23T10:46:54.880Z,84.70
2023-05-23T10:49:44.068Z,84.85
2023-05-23T10:52:20.034Z,83.89
2023-05-23T10:54:53.930Z,83.52
2023-05-23T10:57:29.165Z,82.48
2023-05-23T11:00:00.918Z,81.89
2023-05-23T11:02:33.280Z,82.38
2023-05-23T11:05:27.094Z,82.80
2023-05-23T11:08:14.191Z,83.30
2023-05-23T11:11:03.053Z,83.21
2023-05-23T11:13:57.075Z,83.76
2023-05-23T11:16:33.886Z,83.24
2023-05-23T11:19:25.687Z,82.07
2023-05-23T11:22:03.048Z,82.10
2023-05-23T11:24:53.715Z,81.60
2023-05-23T11:27:40.973Z,80.78
2023-05-23T11:30:14.888Z,81.08
2023-05-23T11:32:54.935Z,82.34
2023-05-23T11:35:27.040Z,83.01
2023-05-23T11:37:59.311Z,81.15
2023-05-23T11:40:36.056Z,81.58
2023-05-23T11:43:09.515Z,82.10
2023-05-23T11:45:42.179Z,81.58
2023-05-23T11:48:18.141Z,81.20
2023-05-23T11:50:54.536Z,80.62
2023-05-23T11:53:28.860Z,79.42
2023-05-23T11:56:02.304Z,79.57
2023-05-23T11:58:41.652Z,80.81
2023-05-23T12:01:14.076Z,80.71
2023-05-23T12:03:52.977Z,79.44
2023-05-23T12:06:26.364Z,79.48
2023-05-23T12:09:01.311Z,79.65
2023-05-23T12:11:34.159Z,79.24
2023-05-23T12:14:06.757Z,79.50
2023-05-23T12:16:39.880Z,78.00
2023-05-23T12:19:11.974Z,77.72
2023-05-23T12:21:45.045Z,76.60
2023-05-23T12:24:18.235Z,76.03
2023-05-23T12:26:58.325Z,75.94
2023-05-23T12:29:34.825Z,75.20
2023-05-23T12:32:07.829Z,75.00
2023-05-23T12:34:44.441Z,74.29
2023-05-23T12:37:20.234Z,73.67
2023-05-23T12:39:49.806Z,74.73
2023-05-23T12:42:21.984Z,74.84
2023-05-23T12:44:55.005Z,73.63
2023-05-23T12:47:26.961Z,73.41
2023-05-23T12:49:59.024Z,72.79
2023-05-23T12:52:30.682Z,72.79
2023-05-23T12:55:02.279Z,74.00
2023-05-23T12:57:36.558Z,73.19
2023-05-23T13:00:09.908Z,73.21
2023-05-23T13:02:41.909Z,72.54
2023-05-23T13:05:13.762Z,73.34
2023-05-23T13:07:45.672Z,73.69
2023-05-23T13:10:17.743Z,73.38
2023-05-23T13:12:49.653Z,73.77
2023-05-23T13:15:21.900Z,74.14
2023-05-23T13:17:53.787Z,74.48
2023-05-23T13:20:27.254Z,74.69
2023-05-23T13:22:59.287Z,74.97
2023-05-23T13:25:31.298Z,75.93
2023-05-23T13:28:03.455Z,76.91
2023-05-23T13:30:35.610Z,77.50
2023-05-23T13:33:07.432Z,77.85
2023-05-23T13:35:39.511Z,78.36
2023-05-23T13:38:11.832Z,78.56
2023-05-23T13:40:43.721Z,78.68
2023-05-23T13:43:15.905Z,78.91
2023-05-23T13:45:47.868Z,78.59
2023-05-23T13:48:19.660Z,78.97
2023-05-23T13:50:52.116Z,79.17
2023-05-23T13:53:24.638Z,79.37
2023-05-23T13:55:56.593Z,79.49
2023-05-23T13:58:30.167Z,80.10
2023-05-23T14:01:02.913Z,80.69
2023-05-23T14:03:35.869Z,80.83
2023-05-23T14:06:08.039Z,81.29
2023-05-23T14:08:41.049Z,81.60
2023-05-23T14:11:12.719Z,81.89
2023-05-23T14:13:44.582Z,82.10
2023-05-23T14:16:16.661Z,82.18
2023-05-23T14:18:48.793Z,82.29
2023-05-23T14:21:20.590Z,82.39
2023-05-23T14:23:52.531Z,82.62
2023-05-23T14:26:24.725Z,82.70
2023-05-23T14:28:57.257Z,82.64
2023-05-23T14:31:29.283Z,82.93
2023-05-23T14:34:01.155Z,83.46
2023-05-23T14:36:33.470Z,84.12
2023-05-23T14:39:06.518Z,84.31
2023-05-23T14:41:39.705Z,84.65
2023-05-23T14:44:11.775Z,84.99
2023-05-23T14:46:45.475Z,85.10
2023-05-23T14:49:18.296Z,85.04
2023-05-23T14:51:51.682Z,85.37
2023-05-23T14:54:23.916Z,86.69
2023-05-23T14:56:56.914Z,88.75
2023-05-23T14:59:29.273Z,90.76
2023-05-23T15:02:01.305Z,92.72
2023-05-23T15:04:34.159Z,93.90
2023-05-23T15:07:06.285Z,94.62
2023-05-23T15:09:38.650Z,94.51
2023-05-23T15:12:13.040Z,94.65
2023-05-23T15:14:45.668Z,94.62
2023-05-23T15:17:19.662Z,94.79
2023-05-23T15:19:52.471Z,94.63
2023-05-23T15:22:37.848Z,94.71
2023-05-23T15:25:02.403Z,95.09
2023-05-23T15:27:34.588Z,95.57
2023-05-23T15:30:07.508Z,96.05
2023-05-23T15:32:39.292Z,96.61
2023-05-23T15:35:11.497Z,97.17
2023-05-23T15:37:45.115Z,97.95
2023-05-23T15:40:17.162Z,98.34
2023-05-23T15:42:49.340Z,98.55
2023-05-23T15:45:21.560Z,99.24
2023-05-23T15:47:53.308Z,99.63
2023-05-23T15:50:25.310Z,100.00
2023-05-23T15:52:57.312Z,100.00
2023-05-23T15:55:29.081Z,100.00
2023-05-23T15:58:01.022Z,100.00
2023-05-23T16:00:32.797Z,100.00
2023-05-23T16:03:05.015Z,100.00
2023-05-23T16:05:36.722Z,100.00
2023-05-23T16:08:08.834Z,100.00
2023-05-23T16:10:40.759Z,100.00
2023-05-23T16:13:12.709Z,100.00
2023-05-23T16:15:44.885Z,100.00
2023-05-23T16:18:17.535Z,100.00
2023-05-23T16:20:49.860Z,100.00
2023-05-23T16:23:21.697Z,100.00
2023-05-23T16:25:54.229Z,100.00
2023-05-23T16:28:29.283Z,100.00
2023-05-23T16:31:01.618Z,100.00
2023-05-23T16:33:34.595Z,100.00
2023-05-23T16:36:06.823Z,100.00
2023-05-23T16:38:39.343Z,100.00
2023-05-23T16:41:11.814Z,100.00
2023-05-23T16:43:44.071Z,100.00
2023-05-23T16:46:19.024Z,100.00
2023-05-23T16:48:50.193Z,100.00
2023-05-23T16:51:23.742Z,100.00
2023-05-23T16:53:55.774Z,100.00
2023-05-23T16:56:27.967Z,100.00
2023-05-23T16:59:00.177Z,100.00
2023-05-23T17:01:32.380Z,100.00
2023-05-23T17:04:05.566Z,100.00
2023-05-23T17:06:38.317Z,100.00
2023-05-23T17:09:10.417Z,100.00
2023-05-23T17:11:43.022Z,100.00
2023-05-23T17:14:14.954Z,100.00
2023-05-23T17:16:47.464Z,100.00
2023-05-23T17:19:19.703Z,100.00
2023-05-23T17:21:52.641Z,100.00
2023-05-23T17:24:24.907Z,100.00
2023-05-23T17:26:57.100Z,100.00
2023-05-23T17:29:29.607Z,100.00
2023-05-23T17:32:02.669Z,100.00
2023-05-23T17:34:56.047Z,100.00
2023-05-23T17:37:28.662Z,100.00
2023-05-23T17:40:00.770Z,100.00
2023-05-23T17:42:33.440Z,100.00
2023-05-23T17:45:05.795Z,100.00
2023-05-23T17:47:37.853Z,100.00
2023-05-23T17:50:11.736Z,100.00
2023-05-23T17:52:45.504Z,100.00
2023-05-23T17:55:17.457Z,100.00
2023-05-23T17:57:49.466Z,100.00
2023-05-23T18:00:21.755Z,100.00
2023-05-23T18:02:54.670Z,100.00
2023-05-23T18:05:26.890Z,100.00
2023-05-23T18:07:58.992Z,100.00
2023-05-23T18:10:30.926Z,100.00
2023-05-23T18:13:02.825Z,100.00
2023-05-23T18:15:34.612Z,100.00
2023-05-23T18:18:07.204Z,100.00
2023-05-23T18:20:39.197Z,100.00
2023-05-23T18:23:11.220Z,100.00
2023-05-23T18:25:43.260Z,100.00
2023-05-23T18:28:15.353Z,100.00
2023-05-23T18:30:47.077Z,100.00
2023-05-23T18:33:19.214Z,100.00
2023-05-23T18:35:51.749Z,100.00
2023-05-23T18:38:23.935Z,100.00
2023-05-23T18:40:55.582Z,100.00
2023-05-23T18:43:27.773Z,100.00
2023-05-23T18:45:59.764Z,100.00
2023-05-23T18:48:33.567Z,100.00
2023-05-23T18:51:05.764Z,100.00
2023-05-23T18:53:38.133Z,100.00
2023-05-23T18:56:11.242Z,100.00
2023-05-23T18:58:45.374Z,100.00
2023-05-23T19:01:17.281Z,100.00
2023-05-23T19:03:49.638Z,100.00
2023-05-23T19:06:21.466Z,100.00
2023-05-23T19:08:53.105Z,100.00
2023-05-23T19:11:26.542Z,100.00
2023-05-23T19:13:58.509Z,100.00
2023-05-23T19:16:30.484Z,100.00
2023-05-23T19:19:02.656Z,100.00
2023-05-23T19:21:34.345Z,100.00
2023-05-23T19:24:07.718Z,100.00
2023-05-23T19:26:41.183Z,100.00
2023-05-23T19:29:13.191Z,100.00
2023-05-23T19:31:45.030Z,100.00
2023-05-23T19:34:17.082Z,100.00
2023-05-23T19:36:49.059Z,100.00
2023-05-23T19:39:21.622Z,100.00
2023-05-23T19:41:53.656Z,100.00
2023-05-23T19:44:25.833Z,100.00
2023-05-23T19:46:57.439Z,100.00
2023-05-23T19:49:29.405Z,100.00
2023-05-23T19:52:00.969Z,100.00
2023-05-23T19:54:33.133Z,100.00
2023-05-23T19:57:05.564Z,100.00
2023-05-23T19:59:37.649Z,100.00
2023-05-23T20:02:10.748Z,100.00
2023-05-23T20:04:42.549Z,100.00
2023-05-23T20:07:14.380Z,100.00
2023-05-23T20:09:46.281Z,100.00
2023-05-23T20:12:18.515Z,100.00
2023-05-23T20:14:50.761Z,100.00
2023-05-23T20:17:22.744Z,100.00
2023-05-23T20:19:55.800Z,100.00
2023-05-23T20:22:27.764Z,100.00
2023-05-23T20:24:59.361Z,100.00
2023-05-23T20:27:31.472Z,100.00
2023-05-23T20:30:03.192Z,100.00
2023-05-23T20:32:36.786Z,100.00
2023-05-23T20:35:09.170Z,100.00
2023-05-23T20:37:41.266Z,100.00
2023-05-23T20:40:13.329Z,100.00
2023-05-23T20:42:49.502Z,100.00
2023-05-23T20:45:21.926Z,100.00
2023-05-23T20:47:53.841Z,100.00
2023-05-23T20:50:26.321Z,100.00
2023-05-23T20:52:59.441Z,100.00
2023-05-23T20:55:33.956Z,100.00
2023-05-23T20:58:06.924Z,100.00
2023-05-23T21:00:38.893Z,100.00
2023-05-23T21:03:10.945Z,100.00
2023-05-23T21:05:43.071Z,100.00
2023-05-23T21:08:15.050Z,100.00
2023-05-23T21:10:50.047Z,100.00
2023-05-23T21:13:20.885Z,100.00
2023-05-23T21:15:52.832Z,100.00
2023-05-23T21:18:24.770Z,100.00
2023-05-23T21:20:56.646Z,100.00
2023-05-23T21:23:28.257Z,100.00
2023-05-23T21:26:00.698Z,100.00
2023-05-23T21:28:33.166Z,100.00
2023-05-23T21:31:06.046Z,100.00
2023-05-23T21:33:38.096Z,100.00
2023-05-23T21:36:09.858Z,100.00
2023-05-23T21:38:41.882Z,100.00
2023-05-23T21:41:13.542Z,100.00
2023-05-23T21:43:45.997Z,100.00
2023-05-23T21:46:17.729Z,100.00
2023-05-23T21:48:49.425Z,100.00
2023-05-23T21:51:21.175Z,100.00
2023-05-23T21:53:53.213Z,100.00
2023-05-23T21:56:25.042Z,100.00
2023-05-23T21:58:56.774Z,100.00
2023-05-23T22:01:28.606Z,100.00
2023-05-23T22:04:00.648Z,100.00
2023-05-23T22:06:33.723Z,100.00
2023-05-23T22:09:10.368Z,100.00
2023-05-23T22:11:43.639Z,100.00
2023-05-23T22:14:15.389Z,100.00
2023-05-23T22:16:47.208Z,100.00
2023-05-23T22:19:20.365Z,100.00
2023-05-23T22:21:53.457Z,100.00
2023-05-23T22:24:25.589Z,100.00
2023-05-23T22:26:58.493Z,100.00
2023-05-23T22:29:30.392Z,100.00
2023-05-23T22:32:02.117Z,100.00
2023-05-23T22:34:34.692Z,100.00
2023-05-23T22:37:06.544Z,100.00
2023-05-23T22:39:38.679Z,100.00
2023-05-23T22:42:10.445Z,100.00
2023-05-23T22:44:42.375Z,100.00
2023-05-23T22:47:14.459Z,100.00
2023-05-23T22:49:46.225Z,100.00
2023-05-23T22:52:17.879Z,100.00
2023-05-23T22:54:49.512Z,100.00
2023-05-23T22:57:21.201Z,100.00
2023-05-23T22:59:52.946Z,100.00
2023-05-23T23:02:24.884Z,100.00
2023-05-23T23:04:56.524Z,100.00
2023-05-23T23:07:28.103Z,100.00
2023-05-23T23:10:00.041Z,100.00
2023-05-23T23:12:32.101Z,100.00
2023-05-23T23:15:04.188Z,100.00
2023-05-23T23:17:36.311Z,100.00
2023-05-23T23:20:09.340Z,100.00
2023-05-23T23:22:41.582Z,100.00
2023-05-23T23:25:13.278Z,100.00
2023-05-23T23:27:45.454Z,100.00
2023-05-23T23:30:17.208Z,100.00
2023-05-23T23:32:49.209Z,100.00
2023-05-23T23:35:20.995Z,100.00
2023-05-23T23:37:52.968Z,100.00
2023-05-23T23:40:24.969Z,100.00
2023-05-23T23:42:56.858Z,100.00
2023-05-23T23:45:28.494Z,100.00
2023-05-23T23:48:00.179Z,100.00
2023-05-23T23:50:31.922Z,100.00
2023-05-23T23:53:03.722Z,100.00
2023-05-23T23:55:35.650Z,100.00
2023-05-23T23:58:07.509Z,100.00
